Time;durP1;ratioP1;P1;durP2;ratioP2;P2;SDS_P1;SDS_P2;PMS_P1;PMS_P2;Temp;Humidity;BMP_temperature;BMP_pressure;BME280_temperature;BME280_humidity;BME280_pressure;Samples;Min_cycle;Max_cycle;Signal;HPM_P1;HPM_P2
2021/03/04 00:01:24;;;;;;;199.63;64.05;;;4.50;99.90;;;;;;4175623;28;20519;-76
2021/03/04 00:03:25;;;;;;;183.25;58.63;;;4.50;99.90;;;;;;4171375;28;20041;-76
2021/03/04 00:05:25;;;;;;;198.68;62.20;;;4.50;99.90;;;;;;4157365;28;20037;-76
2021/03/04 00:07:26;;;;;;;215.48;58.58;;;4.50;99.90;;;;;;4158077;28;20560;-76
2021/03/04 00:09:27;;;;;;;190.93;58.58;;;4.50;99.90;;;;;;4171420;28;20033;-76
2021/03/04 00:11:28;;;;;;;190.27;61.00;;;4.40;99.90;;;;;;4174734;28;20044;-76
2021/03/04 00:13:29;;;;;;;178.50;60.33;;;4.30;99.90;;;;;;4174713;28;20083;-76
2021/03/04 00:15:32;;;;;;;163.10;54.90;;;4.30;99.90;;;;;;4158401;28;20044;-76
2021/03/04 00:17:33;;;;;;;168.30;56.83;;;4.30;99.90;;;;;;4166498;28;20029;-75
2021/03/04 00:19:34;;;;;;;160.02;54.60;;;4.30;99.90;;;;;;4156228;28;20048;-76
2021/03/04 00:21:35;;;;;;;160.25;56.13;;;4.30;99.90;;;;;;4155002;28;20108;-76
2021/03/04 00:23:36;;;;;;;161.45;57.55;;;4.20;99.90;;;;;;4176181;28;20545;-75
2021/03/04 00:25:37;;;;;;;172.07;57.15;;;4.20;99.90;;;;;;4168544;28;20033;-76
2021/03/04 00:27:38;;;;;;;178.23;58.58;;;4.20;99.90;;;;;;4163374;28;20025;-76
2021/03/04 00:29:39;;;;;;;170.05;58.08;;;4.20;99.90;;;;;;4175737;28;20127;-76
2021/03/04 00:31:40;;;;;;;186.98;56.45;;;4.20;99.90;;;;;;4167718;28;20539;-76
2021/03/04 00:33:41;;;;;;;182.23;59.70;;;4.20;99.90;;;;;;4148987;28;20065;-76
2021/03/04 00:35:42;;;;;;;168.90;54.28;;;4.20;99.90;;;;;;4159150;28;20127;-76
2021/03/04 00:37:43;;;;;;;164.98;58.13;;;4.20;99.90;;;;;;4176161;28;20044;-76
2021/03/04 00:39:44;;;;;;;229.48;57.15;;;4.10;99.90;;;;;;4158665;28;20039;-76
2021/03/04 00:41:45;;;;;;;171.02;54.00;;;4.10;99.90;;;;;;4167564;28;20033;-76
2021/03/04 00:43:45;;;;;;;201.48;55.08;;;4.10;99.90;;;;;;4175227;28;20496;-76
2021/03/04 00:45:48;;;;;;;191.07;55.67;;;4.10;99.90;;;;;;4177911;28;20112;-76
2021/03/04 00:47:49;;;;;;;184.77;58.15;;;4.10;99.90;;;;;;4173583;28;20573;-76
2021/03/04 00:49:49;;;;;;;150.75;51.05;;;4.00;99.90;;;;;;4176533;28;20033;-76
2021/03/04 00:51:50;;;;;;;173.18;57.63;;;4.00;99.90;;;;;;4177104;28;20040;-76
2021/03/04 00:53:51;;;;;;;179.95;54.70;;;4.00;99.90;;;;;;4176902;28;20561;-77
2021/03/04 00:55:52;;;;;;;175.13;51.85;;;3.90;99.90;;;;;;4174999;28;20037;-76
2021/03/04 00:57:53;;;;;;;166.18;55.30;;;3.90;99.90;;;;;;4156689;28;20029;-75
2021/03/04 00:59:54;;;;;;;163.20;54.50;;;3.90;99.90;;;;;;4172780;28;20448;-75
2021/03/04 01:01:55;;;;;;;155.80;52.22;;;3.90;99.90;;;;;;4177178;28;20040;-76
2021/03/04 01:03:56;;;;;;;163.90;54.20;;;3.90;99.90;;;;;;4177919;28;20040;-76
2021/03/04 01:05:56;;;;;;;155.15;54.28;;;4.00;99.90;;;;;;4160304;28;20037;-76
2021/03/04 01:07:58;;;;;;;160.05;56.45;;;4.00;99.90;;;;;;4175260;28;20033;-77
2021/03/04 01:10:00;;;;;;;154.48;52.53;;;3.90;99.90;;;;;;4156744;28;20037;-76
2021/03/04 01:12:01;;;;;;;145.25;51.78;;;4.00;99.90;;;;;;4176497;28;20032;-76
2021/03/04 01:14:03;;;;;;;154.77;52.85;;;4.00;99.90;;;;;;4171321;28;20146;-76
2021/03/04 01:16:05;;;;;;;155.82;55.67;;;4.00;99.90;;;;;;4174772;28;20033;-76
2021/03/04 01:18:06;;;;;;;159.80;51.25;;;4.00;99.90;;;;;;4166001;28;20759;-76
2021/03/04 01:20:14;;;;;;;165.65;55.60;;;4.00;99.90;;;;;;4160284;28;20108;-76
2021/03/04 01:22:14;;;;;;;146.98;49.50;;;4.00;99.90;;;;;;4169174;28;20025;-76
2021/03/04 01:24:15;;;;;;;142.43;51.38;;;3.90;99.90;;;;;;4159849;28;20040;-76
2021/03/04 01:26:16;;;;;;;165.82;53.33;;;3.90;99.90;;;;;;4160252;28;20072;-76
2021/03/04 01:28:17;;;;;;;153.98;54.25;;;3.90;99.90;;;;;;4176792;28;20635;-76
2021/03/04 01:30:25;;;;;;;160.55;54.63;;;3.90;99.90;;;;;;4175376;28;20046;-76
2021/03/04 01:32:26;;;;;;;157.20;52.35;;;3.90;99.90;;;;;;4178330;28;20033;-76
2021/03/04 01:34:26;;;;;;;148.60;51.55;;;3.90;99.90;;;;;;4177400;28;20155;-76
2021/03/04 01:36:27;;;;;;;149.13;53.10;;;3.90;99.90;;;;;;4169459;28;20523;-76
2021/03/04 01:38:28;;;;;;;158.98;53.33;;;4.00;99.90;;;;;;4179350;28;20053;-76
2021/03/04 01:40:29;;;;;;;148.88;53.55;;;4.00;99.90;;;;;;4175449;28;20094;-76
2021/03/04 01:42:29;;;;;;;141.45;53.97;;;4.00;99.90;;;;;;4158028;28;20041;-76
2021/03/04 01:44:30;;;;;;;138.48;50.80;;;4.00;99.90;;;;;;4190609;28;20044;-76
2021/03/04 01:46:32;;;;;;;143.55;52.00;;;4.00;99.90;;;;;;4177778;28;20041;-76
2021/03/04 01:48:33;;;;;;;139.68;52.05;;;4.00;99.90;;;;;;4160298;28;20088;-76
2021/03/04 01:50:34;;;;;;;149.70;53.92;;;4.00;99.90;;;;;;4173808;28;20044;-76
2021/03/04 01:52:36;;;;;;;175.35;58.58;;;3.90;99.90;;;;;;4158282;28;20033;-76
2021/03/04 01:54:36;;;;;;;163.02;53.80;;;3.90;99.90;;;;;;4172186;28;20068;-77
2021/03/04 01:56:37;;;;;;;150.48;49.92;;;4.00;99.90;;;;;;4175953;28;20044;-77
2021/03/04 01:58:38;;;;;;;134.05;50.40;;;4.00;99.90;;;;;;4155426;28;20054;-77
2021/03/04 02:00:39;;;;;;;126.95;47.28;;;4.00;99.90;;;;;;4172685;28;20046;-77
2021/03/04 02:02:40;;;;;;;131.55;46.88;;;3.90;99.90;;;;;;4177431;28;20044;-77
2021/03/04 02:04:40;;;;;;;114.35;45.78;;;3.90;99.90;;;;;;4176843;28;20079;-77
2021/03/04 02:07:00;;;;;;;119.70;46.13;;;4.00;99.90;;;;;;4176711;28;20393;-76
2021/03/04 02:09:02;;;;;;;123.55;44.60;;;4.00;99.90;;;;;;4192302;28;20036;-76
2021/03/04 02:11:12;;;;;;;131.48;47.60;;;4.00;99.90;;;;;;4190421;28;20407;-76
2021/03/04 02:13:54;;;;;;;129.30;47.22;;;4.00;99.90;;;;;;4178347;28;20468;-76
2021/03/04 02:16:14;;;;;;;147.52;48.35;;;3.90;99.90;;;;;;4171937;28;20136;-77
2021/03/04 02:18:17;;;;;;;150.93;50.25;;;3.90;99.90;;;;;;4175252;28;20507;-75
2021/03/04 02:21:04;;;;;;;;;;;3.90;99.90;;;;;;4161791;28;20044;-76
2021/03/04 02:23:33;;;;;;;138.45;46.30;;;3.80;99.90;;;;;;4106421;28;20337;-78
2021/03/04 02:25:44;;;;;;;129.63;44.03;;;3.80;99.90;;;;;;4128476;28;20324;-76
2021/03/04 02:27:49;;;;;;;128.45;46.65;;;3.90;99.90;;;;;;4130504;28;20121;-76
2021/03/04 02:30:03;;;;;;;128.35;46.22;;;3.90;99.90;;;;;;4157233;28;20041;-76
2021/03/04 02:32:06;;;;;;;131.90;46.67;;;3.90;99.90;;;;;;4160855;28;20417;-75
2021/03/04 02:34:09;;;;;;;126.37;44.80;;;4.00;99.90;;;;;;4152856;28;20047;-76
2021/03/04 02:36:10;;;;;;;132.98;46.78;;;4.00;99.90;;;;;;4154924;28;20288;-76
2021/03/04 02:38:16;;;;;;;132.95;48.97;;;3.90;99.90;;;;;;4168281;28;20060;-75
2021/03/04 02:40:20;;;;;;;134.32;49.25;;;3.90;99.90;;;;;;4173999;28;20037;-75
2021/03/04 02:42:23;;;;;;;116.53;44.55;;;3.90;99.90;;;;;;4187394;28;20487;-76
2021/03/04 02:44:24;;;;;;;;;;;3.90;99.90;;;;;;4169649;28;20419;-76
2021/03/04 02:46:26;;;;;;;119.03;43.30;;;4.00;99.90;;;;;;4160556;28;19960;-75
2021/03/04 02:48:27;;;;;;;124.32;45.65;;;4.00;99.90;;;;;;4171609;28;20087;-75
2021/03/04 02:50:29;;;;;;;112.95;43.75;;;4.00;99.90;;;;;;4167223;28;20037;-77
2021/03/04 02:52:30;;;;;;;121.80;45.30;;;4.00;99.90;;;;;;4177314;28;20029;-77
2021/03/04 02:54:33;;;;;;;119.68;48.42;;;4.00;99.90;;;;;;4179406;28;20076;-75
2021/03/04 02:56:34;;;;;;;109.75;44.35;;;4.00;99.90;;;;;;4178019;28;20965;-75
2021/03/04 02:58:37;;;;;;;112.70;45.67;;;4.00;99.90;;;;;;4174459;28;20065;-75
2021/03/04 03:00:39;;;;;;;105.97;42.83;;;4.00;99.90;;;;;;4175257;28;20455;-76
2021/03/04 03:02:42;;;;;;;111.75;44.40;;;4.00;99.90;;;;;;4172707;28;20046;-75
2021/03/04 03:04:44;;;;;;;;;;;4.00;99.90;;;;;;4188883;28;20552;-76
2021/03/04 03:06:47;;;;;;;102.47;41.35;;;4.10;99.90;;;;;;4171964;28;19940;-76
2021/03/04 03:08:49;;;;;;;104.63;43.50;;;4.10;99.90;;;;;;4190803;28;20052;-76
2021/03/04 03:10:52;;;;;;;104.13;42.88;;;4.10;99.90;;;;;;4191358;28;20439;-76
2021/03/04 03:12:57;;;;;;;101.15;40.28;;;4.00;99.90;;;;;;4190532;28;20114;-77
2021/03/04 03:15:00;;;;;;;93.85;39.05;;;3.90;99.90;;;;;;4187297;28;20045;-76
2021/03/04 03:17:01;;;;;;;97.00;42.80;;;4.00;99.90;;;;;;4157044;28;20057;-77
2021/03/04 03:19:03;;;;;;;103.10;43.38;;;4.00;99.90;;;;;;4174844;28;20555;-77
2021/03/04 03:21:04;;;;;;;106.95;46.22;;;3.90;99.90;;;;;;4174979;28;20037;-77
2021/03/04 03:23:05;;;;;;;114.25;45.10;;;3.90;99.90;;;;;;4174683;28;20037;-76
2021/03/04 03:25:11;;;;;;;121.63;45.75;;;3.80;99.90;;;;;;4175740;28;20075;-76
2021/03/04 03:27:12;;;;;;;117.50;45.55;;;3.80;99.90;;;;;;4190649;28;20115;-76
2021/03/04 03:29:13;;;;;;;123.47;52.25;;;3.90;99.90;;;;;;4174014;28;20464;-76
2021/03/04 03:31:17;;;;;;;122.93;45.83;;;3.80;99.90;;;;;;4175536;28;20036;-76
2021/03/04 03:33:19;;;;;;;136.80;50.17;;;3.90;99.90;;;;;;4177316;28;20091;-76
2021/03/04 03:35:20;;;;;;;120.10;46.83;;;3.90;99.90;;;;;;4175485;28;20053;-76
2021/03/04 03:37:22;;;;;;;133.35;50.53;;;3.90;99.90;;;;;;4169239;28;20068;-77
2021/03/04 03:39:24;;;;;;;140.90;49.80;;;3.90;99.90;;;;;;4160572;28;20042;-76
2021/03/04 03:41:25;;;;;;;145.32;49.90;;;3.90;99.90;;;;;;4171895;28;20436;-76
2021/03/04 03:43:27;;;;;;;143.38;48.97;;;3.90;99.90;;;;;;4173571;28;20036;-76
2021/03/04 03:45:35;;;;;;;141.48;52.30;;;3.90;99.90;;;;;;4176533;28;20037;-76
2021/03/04 03:47:37;;;;;;;146.80;52.67;;;3.80;99.90;;;;;;4150879;28;20107;-76
2021/03/04 03:49:39;;;;;;;163.95;53.30;;;3.80;99.90;;;;;;4170054;28;20036;-76
2021/03/04 03:51:40;;;;;;;148.90;51.92;;;3.80;99.90;;;;;;4184158;28;20480;-76
2021/03/04 03:53:42;;;;;;;155.40;51.85;;;3.80;99.90;;;;;;4191929;28;20183;-76
2021/03/04 03:55:51;;;;;;;149.02;52.05;;;3.80;99.90;;;;;;4181303;28;20076;-76
2021/03/04 03:57:52;;;;;;;144.35;48.83;;;3.80;99.90;;;;;;4176449;28;20037;-76
2021/03/04 03:59:56;;;;;;;132.18;49.50;;;3.70;99.90;;;;;;4160920;28;20041;-76
2021/03/04 04:01:58;;;;;;;136.02;46.85;;;3.80;99.90;;;;;;4176086;28;20037;-76
2021/03/04 04:04:00;;;;;;;130.98;48.78;;;3.70;99.90;;;;;;4176728;28;20056;-76
2021/03/04 04:06:03;;;;;;;134.73;50.20;;;3.70;99.90;;;;;;4176437;28;20079;-76
2021/03/04 04:08:04;;;;;;;141.43;48.50;;;3.70;99.90;;;;;;4174287;28;20029;-76
2021/03/04 04:10:07;;;;;;;126.03;47.35;;;3.70;99.90;;;;;;4174948;28;20025;-76
2021/03/04 04:12:08;;;;;;;136.27;46.47;;;3.70;99.90;;;;;;4171765;28;20396;-77
2021/03/04 04:14:09;;;;;;;131.10;49.25;;;3.70;99.90;;;;;;4176711;28;20116;-75
2021/03/04 04:16:10;;;;;;;131.95;49.13;;;3.70;99.90;;;;;;4177490;28;20029;-76
2021/03/04 04:18:11;;;;;;;140.02;53.13;;;3.70;99.90;;;;;;4178704;28;20387;-76
2021/03/04 04:20:13;;;;;;;127.10;50.78;;;3.60;99.90;;;;;;4194940;28;20525;-76
2021/03/04 04:22:16;;;;;;;133.93;50.20;;;3.60;99.90;;;;;;4179338;28;20104;-75
2021/03/04 04:24:17;;;;;;;135.40;48.55;;;3.60;99.90;;;;;;4179147;28;20067;-76
2021/03/04 04:26:19;;;;;;;128.88;47.60;;;3.60;99.90;;;;;;4179591;28;20143;-76
2021/03/04 04:28:21;;;;;;;131.32;48.40;;;3.60;99.90;;;;;;4184068;28;20076;-76
2021/03/04 04:30:25;;;;;;;121.57;45.83;;;3.60;99.90;;;;;;4158983;28;20042;-76
2021/03/04 04:32:26;;;;;;;120.40;47.15;;;3.50;99.90;;;;;;4196459;28;20105;-76
2021/03/04 04:34:27;;;;;;;115.70;41.70;;;3.60;99.90;;;;;;4178085;28;20186;-77
2021/03/04 04:36:28;;;;;;;116.22;43.67;;;3.60;99.90;;;;;;4178383;28;20109;-76
2021/03/04 04:38:29;;;;;;;125.80;45.90;;;3.60;99.90;;;;;;4175313;28;20043;-77
2021/03/04 04:40:30;;;;;;;128.00;47.08;;;3.60;99.90;;;;;;4177292;28;20116;-77
2021/03/04 04:42:31;;;;;;;134.48;48.10;;;3.60;99.90;;;;;;4171815;28;20040;-77
2021/03/04 04:44:31;;;;;;;114.03;43.60;;;3.60;99.90;;;;;;4176184;28;20586;-76
2021/03/04 04:46:32;;;;;;;117.35;44.50;;;3.60;99.90;;;;;;4176467;28;20116;-76
2021/03/04 04:48:33;;;;;;;119.10;43.00;;;3.50;99.90;;;;;;4177136;28;20809;-77
2021/03/04 04:50:34;;;;;;;123.55;43.50;;;3.60;99.90;;;;;;4177932;28;20102;-76
2021/03/04 04:52:35;;;;;;;110.45;43.33;;;3.60;99.90;;;;;;4176633;28;20029;-76
2021/03/04 04:54:35;;;;;;;108.15;43.55;;;3.50;99.90;;;;;;4176550;28;20064;-76
2021/03/04 04:56:37;;;;;;;113.00;40.47;;;3.50;99.90;;;;;;4176273;28;20037;-76
2021/03/04 04:58:37;;;;;;;94.60;37.92;;;3.50;99.90;;;;;;4178817;28;20167;-77
2021/03/04 05:00:38;;;;;;;99.20;41.13;;;3.60;99.90;;;;;;4178087;28;20097;-77
2021/03/04 05:02:39;;;;;;;93.80;39.13;;;3.60;99.90;;;;;;4179389;28;20048;-76
2021/03/04 05:04:40;;;;;;;91.57;37.67;;;3.50;99.90;;;;;;4175949;28;20041;-76
2021/03/04 05:06:41;;;;;;;93.38;37.00;;;3.50;99.90;;;;;;4156825;28;20038;-77
2021/03/04 05:08:41;;;;;;;90.10;36.83;;;3.60;99.90;;;;;;4177267;28;20548;-76
2021/03/04 05:10:42;;;;;;;86.25;38.28;;;3.60;99.90;;;;;;4174810;28;20120;-76
2021/03/04 05:12:45;;;;;;;95.97;38.08;;;3.60;99.90;;;;;;4175251;28;20041;-77
2021/03/04 05:14:47;;;;;;;93.70;38.25;;;3.50;99.90;;;;;;4173906;28;20516;-76
2021/03/04 05:16:47;;;;;;;100.45;40.58;;;3.50;99.90;;;;;;4176180;28;20829;-76
2021/03/04 05:18:48;;;;;;;99.95;39.83;;;3.50;99.90;;;;;;4174434;28;20029;-76
2021/03/04 05:20:49;;;;;;;90.50;37.47;;;3.60;99.90;;;;;;4174370;28;20033;-76
2021/03/04 05:22:50;;;;;;;89.50;38.30;;;3.70;99.90;;;;;;4156075;28;20033;-76
2021/03/04 05:24:51;;;;;;;99.68;39.65;;;3.70;99.90;;;;;;4176592;28;20059;-75
2021/03/04 05:26:52;;;;;;;104.45;44.63;;;3.70;99.90;;;;;;4160476;28;20034;-76
2021/03/04 05:28:53;;;;;;;103.63;40.38;;;3.60;99.90;;;;;;4178511;28;20037;-76
2021/03/04 05:30:53;;;;;;;108.30;42.42;;;3.70;99.90;;;;;;4161788;28;20041;-76
2021/03/04 05:32:54;;;;;;;111.05;42.47;;;3.60;99.90;;;;;;4160546;28;20052;-76
2021/03/04 05:34:55;;;;;;;111.45;43.00;;;3.60;99.90;;;;;;4192979;28;20451;-76
2021/03/04 05:36:56;;;;;;;113.38;44.25;;;3.60;99.90;;;;;;4161933;28;20688;-76
2021/03/04 05:38:57;;;;;;;109.78;44.00;;;3.60;99.90;;;;;;4178223;28;20044;-76
2021/03/04 05:40:58;;;;;;;102.85;41.67;;;3.70;99.90;;;;;;4177500;28;20506;-76
2021/03/04 05:42:59;;;;;;;107.20;41.97;;;3.70;99.90;;;;;;4171347;28;20050;-76
2021/03/04 05:45:02;;;;;;;99.65;39.92;;;3.70;99.90;;;;;;4177155;28;20123;-76
2021/03/04 05:47:06;;;;;;;100.88;41.45;;;3.70;99.90;;;;;;4153614;28;20045;-76
2021/03/04 05:49:11;;;;;;;100.75;40.03;;;3.70;99.90;;;;;;4175798;28;20048;-75
2021/03/04 05:51:19;;;;;;;102.97;41.38;;;3.70;99.90;;;;;;4178575;28;20049;-76
2021/03/04 05:53:21;;;;;;;105.93;40.88;;;3.70;99.90;;;;;;4179698;28;20089;-76
2021/03/04 05:55:24;;;;;;;99.93;39.28;;;3.70;99.90;;;;;;4160181;28;20052;-76
2021/03/04 05:57:25;;;;;;;100.97;42.38;;;3.70;99.90;;;;;;4175618;28;20044;-76
2021/03/04 05:59:26;;;;;;;102.55;40.65;;;3.60;99.90;;;;;;4158842;28;20494;-76
2021/03/04 06:01:28;;;;;;;95.75;38.40;;;3.70;99.90;;;;;;4176148;28;20041;-76
2021/03/04 06:03:30;;;;;;;93.57;37.67;;;3.70;99.90;;;;;;4176767;28;20044;-76
2021/03/04 06:05:31;;;;;;;99.22;39.22;;;3.70;99.90;;;;;;4178149;28;20033;-76
2021/03/04 06:07:32;;;;;;;94.18;38.78;;;3.70;99.90;;;;;;4172374;28;20029;-76
2021/03/04 06:09:32;;;;;;;92.78;38.30;;;3.70;99.90;;;;;;4174819;28;20044;-77
2021/03/04 06:11:37;;;;;;;96.95;39.45;;;3.70;99.90;;;;;;4173644;28;20090;-76
2021/03/04 06:13:38;;;;;;;88.47;36.53;;;3.70;99.90;;;;;;4167147;28;20033;-76
2021/03/04 06:15:38;;;;;;;96.10;37.35;;;3.70;99.90;;;;;;4165719;28;20048;-76
2021/03/04 06:17:54;;;;;;;100.22;40.28;;;3.70;99.90;;;;;;4172933;28;20041;-76
2021/03/04 06:19:58;;;;;;;94.40;38.58;;;3.70;99.90;;;;;;4171925;28;20040;-76
2021/03/04 06:21:59;;;;;;;101.50;40.97;;;3.70;99.90;;;;;;4172188;28;20049;-75
2021/03/04 06:24:11;;;;;;;104.13;42.35;;;3.70;99.90;;;;;;4176543;28;20447;-77
2021/03/04 06:26:37;;;;;;;95.35;37.75;;;3.70;99.90;;;;;;4173510;28;20035;-76
2021/03/04 06:28:38;;;;;;;98.60;37.83;;;3.80;99.90;;;;;;4167108;28;20100;-76
2021/03/04 06:30:41;;;;;;;96.10;39.28;;;3.80;99.90;;;;;;4189787;28;20033;-75
2021/03/04 06:32:57;;;;;;;103.15;39.63;;;3.70;99.90;;;;;;4175165;28;20506;-76
2021/03/04 06:35:05;;;;;;;100.30;40.15;;;3.70;99.90;;;;;;4172902;28;20051;-77
2021/03/04 06:37:06;;;;;;;94.70;37.63;;;3.70;99.90;;;;;;4174595;28;20060;-77
2021/03/04 06:39:07;;;;;;;87.68;37.58;;;3.80;99.90;;;;;;4179397;28;20033;-76
2021/03/04 06:41:19;;;;;;;87.22;35.90;;;3.80;99.90;;;;;;4173726;28;20087;-76
2021/03/04 06:43:26;;;;;;;90.35;36.28;;;3.80;99.90;;;;;;4159536;28;20116;-76
2021/03/04 06:45:37;;;;;;;85.20;35.83;;;3.80;99.90;;;;;;4174932;28;20120;-75
2021/03/04 06:47:38;;;;;;;82.18;34.13;;;3.70;99.90;;;;;;4176840;28;20516;-76
2021/03/04 06:49:42;;;;;;;85.72;35.85;;;3.70;99.90;;;;;;4176067;28;20056;-76
2021/03/04 06:51:45;;;;;;;83.05;34.00;;;3.80;99.90;;;;;;4191012;28;20051;-77
2021/03/04 06:53:54;;;;;;;91.82;37.80;;;3.80;99.90;;;;;;4168744;28;20451;-76
2021/03/04 06:56:05;;;;;;;83.00;33.85;;;3.80;99.90;;;;;;4174654;28;20568;-77
2021/03/04 06:58:05;;;;;;;93.00;36.78;;;3.80;99.90;;;;;;4158631;28;20037;-76
2021/03/04 07:00:28;;;;;;;88.32;36.72;;;3.60;99.90;;;;;;4176934;28;20025;-76
2021/03/04 07:02:30;;;;;;;85.88;35.67;;;3.80;99.90;;;;;;4176313;28;20033;-76
2021/03/04 07:04:30;;;;;;;94.10;39.83;;;3.80;99.90;;;;;;4167986;28;20099;-76
2021/03/04 07:06:36;;;;;;;88.78;35.80;;;3.80;99.90;;;;;;4157811;28;20041;-77
2021/03/04 07:08:40;;;;;;;91.28;37.25;;;3.80;99.90;;;;;;4175794;28;20451;-76
2021/03/04 07:10:41;;;;;;;100.30;39.72;;;3.90;99.90;;;;;;4174020;28;20046;-77
2021/03/04 07:12:45;;;;;;;97.78;38.25;;;3.80;99.90;;;;;;4173503;28;20048;-77
2021/03/04 07:14:49;;;;;;;93.25;35.33;;;3.90;99.90;;;;;;4171577;28;20416;-77
2021/03/04 07:16:50;;;;;;;100.90;37.38;;;3.90;99.90;;;;;;4155148;28;20504;-76
2021/03/04 07:18:58;;;;;;;91.47;37.47;;;3.90;99.90;;;;;;4156995;28;20056;-76
2021/03/04 07:21:01;;;;;;;98.72;39.45;;;3.90;99.90;;;;;;4188501;28;20036;-76
2021/03/04 07:23:02;;;;;;;88.03;37.67;;;4.00;99.90;;;;;;4181618;28;20039;-76
2021/03/04 07:25:04;;;;;;;99.97;40.35;;;4.10;99.90;;;;;;4156687;28;20098;-76
2021/03/04 07:27:07;;;;;;;94.20;36.40;;;4.10;99.90;;;;;;4176576;28;20492;-75
2021/03/04 07:29:10;;;;;;;89.72;37.58;;;4.10;99.90;;;;;;4173678;28;20116;-75
2021/03/04 07:31:14;;;;;;;91.70;37.25;;;4.10;99.90;;;;;;4171901;28;20032;-76
2021/03/04 07:33:14;;;;;;;;;;;4.10;99.90;;;;;;4156468;28;20033;-76
2021/03/04 07:35:16;;;;;;;93.55;38.83;;;4.10;99.90;;;;;;4173016;28;19927;-76
2021/03/04 07:37:18;;;;;;;87.03;37.58;;;4.00;99.90;;;;;;4175312;28;20033;-78
2021/03/04 07:39:34;;;;;;;87.32;37.53;;;4.00;99.90;;;;;;4175988;28;20068;-77
2021/03/04 07:41:40;;;;;;;95.22;37.42;;;4.10;99.90;;;;;;4169466;28;20045;-77
2021/03/04 07:43:55;;;;;;;86.80;35.20;;;4.10;99.90;;;;;;4160378;28;20082;-77
2021/03/04 07:45:57;;;;;;;82.78;36.42;;;4.10;99.90;;;;;;4176778;28;20029;-77
2021/03/04 07:48:08;;;;;;;87.63;34.78;;;4.20;99.90;;;;;;4169277;28;20037;-77
2021/03/04 07:50:21;;;;;;;87.88;37.03;;;4.20;99.90;;;;;;4175072;28;20595;-78
2021/03/04 07:52:24;;;;;;;90.57;37.72;;;4.10;99.90;;;;;;4167474;28;20067;-77
2021/03/04 07:54:28;;;;;;;80.93;36.17;;;4.10;99.90;;;;;;4174207;28;20119;-78
2021/03/04 07:56:29;;;;;;;82.05;35.80;;;4.20;99.90;;;;;;4190090;28;20041;-77
2021/03/04 07:58:38;;;;;;;82.53;35.67;;;4.20;99.90;;;;;;4165628;28;20128;-77
2021/03/04 08:00:38;;;;;;;82.90;34.55;;;4.20;99.90;;;;;;4174114;28;20041;-77
2021/03/04 08:02:44;;;;;;;81.93;35.38;;;4.10;99.90;;;;;;4176466;28;20172;-77
2021/03/04 08:04:45;;;;;;;74.80;33.60;;;4.20;99.90;;;;;;4175850;28;20045;-78
2021/03/04 08:06:55;;;;;;;80.43;36.63;;;4.20;99.90;;;;;;4198936;28;20045;-78
2021/03/04 08:08:55;;;;;;;79.13;33.42;;;4.20;99.90;;;;;;4175989;28;20033;-78
2021/03/04 08:10:57;;;;;;;75.03;33.97;;;4.30;99.90;;;;;;4174234;28;20044;-76
2021/03/04 08:13:02;;;;;;;71.40;33.13;;;4.20;99.90;;;;;;4172784;28;20044;-76
2021/03/04 08:15:04;;;;;;;73.68;33.58;;;4.30;99.90;;;;;;4175108;28;20431;-76
2021/03/04 08:17:05;;;;;;;76.45;32.83;;;4.30;99.90;;;;;;4175461;28;20514;-76
2021/03/04 08:19:06;;;;;;;74.45;32.65;;;4.30;99.90;;;;;;4175959;28;20135;-77
2021/03/04 08:21:09;;;;;;;73.63;32.20;;;4.30;99.90;;;;;;4172002;28;20093;-76
2021/03/04 08:23:10;;;;;;;64.20;30.40;;;4.30;99.90;;;;;;4160001;28;20037;-76
2021/03/04 08:25:17;;;;;;;68.22;32.45;;;4.30;99.90;;;;;;4175290;28;20090;-78
2021/03/04 08:27:18;;;;;;;67.00;31.10;;;4.30;99.90;;;;;;4171786;28;20400;-76
2021/03/04 08:29:19;;;;;;;77.13;32.95;;;4.30;99.90;;;;;;4161935;28;20028;-76
2021/03/04 08:31:20;;;;;;;75.45;33.95;;;4.40;99.90;;;;;;4175578;28;20029;-76
2021/03/04 08:33:22;;;;;;;77.25;34.10;;;4.40;99.90;;;;;;4156778;28;20073;-77
2021/03/04 08:35:23;;;;;;;75.82;32.25;;;4.40;99.90;;;;;;4173632;28;20462;-77
2021/03/04 08:37:24;;;;;;;71.50;32.55;;;4.30;99.90;;;;;;4159517;28;20037;-76
2021/03/04 08:39:31;;;;;;;71.80;34.03;;;4.30;99.90;;;;;;4172955;28;20036;-77
2021/03/04 08:41:32;;;;;;;84.47;35.03;;;4.30;99.90;;;;;;4189643;28;20044;-76
2021/03/04 08:43:34;;;;;;;68.70;31.67;;;4.30;99.90;;;;;;4172912;28;20037;-77
2021/03/04 08:45:35;;;;;;;74.68;32.97;;;4.30;99.90;;;;;;4174228;28;20131;-76
2021/03/04 08:47:39;;;;;;;69.50;31.70;;;4.30;99.90;;;;;;4174397;28;20031;-76
2021/03/04 08:49:50;;;;;;;74.32;32.63;;;4.30;99.90;;;;;;4159935;28;20048;-75
2021/03/04 08:51:51;;;;;;;75.38;31.88;;;4.30;99.90;;;;;;4176635;28;20041;-77
2021/03/04 08:53:52;;;;;;;72.43;33.65;;;4.30;99.90;;;;;;4158883;28;20125;-76
2021/03/04 08:55:58;;;;;;;72.82;31.77;;;4.30;99.90;;;;;;4171842;28;20470;-76
2021/03/04 08:58:06;;;;;;;63.72;30.98;;;4.40;99.90;;;;;;4171125;28;20036;-77
2021/03/04 09:00:13;;;;;;;75.93;33.67;;;4.40;99.90;;;;;;4175275;28;20055;-77
2021/03/04 09:02:15;;;;;;;71.03;32.95;;;4.50;99.90;;;;;;4172151;28;20459;-76
2021/03/04 09:04:18;;;;;;;71.07;32.72;;;4.50;99.90;;;;;;4175338;28;20404;-78
2021/03/04 09:06:19;;;;;;;70.73;32.77;;;4.50;99.90;;;;;;4172802;28;20086;-77
2021/03/04 09:08:20;;;;;;;83.93;35.00;;;4.80;99.90;;;;;;4175379;28;20870;-77
2021/03/04 09:10:21;;;;;;;69.25;30.05;;;4.50;99.90;;;;;;4173919;28;20108;-77
2021/03/04 09:12:22;;;;;;;63.53;32.08;;;4.60;99.90;;;;;;4174884;28;20030;-76
2021/03/04 09:14:31;;;;;;;77.03;31.65;;;4.60;99.90;;;;;;4167496;28;20072;-76
2021/03/04 09:16:44;;;;;;;75.38;34.60;;;4.60;99.90;;;;;;4159720;28;20064;-77
2021/03/04 09:18:46;;;;;;;76.68;33.47;;;4.60;99.90;;;;;;4191421;28;20037;-76
2021/03/04 09:20:54;;;;;;;69.63;31.65;;;4.60;99.90;;;;;;4177828;28;20037;-78
2021/03/04 09:22:54;;;;;;;66.15;31.27;;;4.60;99.90;;;;;;4173716;28;20033;-76
2021/03/04 09:24:55;;;;;;;72.10;33.47;;;4.60;99.90;;;;;;4159596;28;20087;-78
2021/03/04 09:26:56;;;;;;;72.70;32.53;;;4.60;99.90;;;;;;4194758;28;20037;-77
2021/03/04 09:28:57;;;;;;;63.25;30.98;;;4.60;99.90;;;;;;4162407;28;20112;-77
2021/03/04 09:31:14;;;;;;;66.63;31.42;;;4.60;99.90;;;;;;4146649;28;20491;-76
2021/03/04 09:33:20;;;;;;;70.82;28.63;;;4.60;99.90;;;;;;4179760;28;20041;-76
2021/03/04 09:35:21;;;;;;;67.45;29.10;;;4.50;99.90;;;;;;4178926;28;20029;-76
2021/03/04 09:37:28;;;;;;;63.05;30.48;;;4.70;99.90;;;;;;4179467;28;20103;-76
2021/03/04 09:39:44;;;;;;;58.10;29.83;;;4.70;99.90;;;;;;4188026;28;20036;-77
2021/03/04 09:41:52;;;;;;;57.92;29.20;;;4.70;99.90;;;;;;4173218;28;20046;-76
2021/03/04 09:44:14;;;;;;;61.10;28.10;;;4.80;99.90;;;;;;4173485;28;20032;-76
2021/03/04 09:46:41;;;;;;;61.00;26.30;;;4.80;99.90;;;;;;4194377;28;20107;-77
2021/03/04 09:48:41;;;;;;;48.97;24.15;;;4.90;99.90;;;;;;4172402;28;20033;-76
2021/03/04 09:50:53;;;;;;;43.78;21.30;;;4.90;99.90;;;;;;4179119;28;20040;-76
2021/03/04 09:53:02;;;;;;;41.38;19.75;;;5.00;99.90;;;;;;4172514;28;20029;-76
2021/03/04 09:55:17;;;;;;;41.88;21.20;;;5.10;99.90;;;;;;4180055;28;20041;-76
2021/03/04 09:57:21;;;;;;;35.30;19.73;;;5.00;99.90;;;;;;4177814;28;20028;-76
2021/03/04 09:59:22;;;;;;;35.60;19.00;;;5.00;99.90;;;;;;4178049;28;20037;-76
2021/03/04 10:01:33;;;;;;;41.97;22.58;;;4.90;99.90;;;;;;4173045;28;20037;-76
2021/03/04 10:03:39;;;;;;;37.92;19.08;;;4.90;99.90;;;;;;4160923;28;20053;-76
2021/03/04 10:05:51;;;;;;;37.03;19.50;;;5.00;99.90;;;;;;4166327;28;20484;-76
2021/03/04 10:08:02;;;;;;;38.70;18.83;;;5.00;99.90;;;;;;4178122;28;20080;-76
2021/03/04 10:10:03;;;;;;;44.88;21.60;;;5.10;99.90;;;;;;4174118;28;20033;-76
2021/03/04 10:12:04;;;;;;;39.67;20.95;;;5.10;99.90;;;;;;4161695;28;20116;-76
2021/03/04 10:14:10;;;;;;;38.92;21.08;;;5.20;99.90;;;;;;4176503;28;20037;-77
2021/03/04 10:16:13;;;;;;;42.42;22.00;;;5.20;99.90;;;;;;4177556;28;20028;-76
2021/03/04 10:18:15;;;;;;;43.92;22.05;;;5.20;99.90;;;;;;4176572;28;20021;-76
2021/03/04 10:20:16;;;;;;;44.72;22.73;;;5.10;99.90;;;;;;4173850;28;20544;-77
2021/03/04 10:22:17;;;;;;;44.33;22.45;;;5.10;99.90;;;;;;4176397;28;20060;-78
2021/03/04 10:24:19;;;;;;;47.13;21.98;;;5.10;99.90;;;;;;4174975;28;20033;-76
2021/03/04 10:26:20;;;;;;;40.30;21.60;;;5.20;99.90;;;;;;4166105;28;20048;-77
2021/03/04 10:28:20;;;;;;;43.65;23.30;;;5.20;99.90;;;;;;4188228;28;20059;-76
2021/03/04 10:30:22;;;;;;;39.17;19.92;;;5.20;99.90;;;;;;4158887;28;20069;-75
2021/03/04 10:32:22;;;;;;;37.33;19.80;;;5.20;99.90;;;;;;4161549;28;20477;-76